Musselfork, Missouri
Current Conditions -  °F | °C
As of 1:15 PM on Thursday 27 Nov 2014 (Local Time) from KMHL Reporting Station
Overcast Overcast  
Wind Chill: 26°   Ceiling: 8500
Heat Index: 32°   Visibility: 10mi
Dew Point: 25°   Wind: 7mph
Humidity: 75%   Direction: 260°W
Pressure: 30.52"   Gusts: NA
Location:  39.4953°N, 92.9281°W
Report Text: KMHL 271915Z AUTO 26006KT 10SM SCT020 OVC085 00/M04 A3052 RMK AO2
Loading
Personal Weather Stations






























Interactive Weather Map New forecast layout! Learn more

10-Day Weather Forecast

Advertisements
Track Severe Weather on mobile